x

West Sea Otter (46204) Wave Buoy

12:00 - Mon 24th Jul 2017 All times are PDT. -7 hours from GMT.

  • Sig Wave height 4.3ft
  • Peak Period 6s
  • Wind
    13mph, 16mph gusts
  • Sea Temp 58°f
  • Ar Temp 57°f
  • Sea Pressure 1021.2mb
  • West Sea Otter
  • West Sea Otter

More Historic Weather Station data

Upgrade to MSW Pro to gain access to the past 30 days of data for over 8000 Wavebouys and Weather Stations around the globe.

Join Pro

Comparision Forecast

View Surf forecast
   
Seg 07/24 12:00 4.5ft 6s 13 16 mph 1021.2mb 58f 57f
11:00 4.5ft 6s 13 16 mph 1021.3mb 58f 57f
10:00 4ft 7s 13 16 mph 1021.4mb 58f 57f
9:00 3.5ft 8s 13 16 mph 1021.8mb 58f 57f
8:00 4ft 8s 16 18 mph 1021.5mb 58f 57f
7:00 4ft 8s 16 20 mph 1021.6mb 58f 57f
6:00 4.5ft 8s 18 20 mph 1021.4mb 58f 57f
5:00 4ft 8s 18 20 mph 1021.4mb 58f 57f
4:00 4.5ft 8s 18 22 mph 1021.5mb 58f 57f
3:00 4ft 8s 20 22 mph 1021.8mb 58f 58f
2:00 4.5ft 8s 18 22 mph 1022.1mb 58f 58f
1:00 4.5ft 7s 18 22 mph 1022.4mb 58f 58f
12:00 4.5ft 8s 18 22 mph 1022.7mb 58f 57f
Dom 07/23 11:00 4ft 8s 18 22 mph 1023.1mb 58f 57f
10:00 4ft 8s 18 20 mph 1023.3mb 58f 58f
9:00 4ft 8s 16 20 mph 1023.5mb 58f 58f
8:00 3.5ft 8s 18 20 mph 1023.6mb 58f 58f
7:00 3.5ft 8s 18 20 mph 1023.9mb 58f 58f
6:00 3.5ft 8s 18 20 mph 1024mb 59f 58f
5:00 3.5ft 8s 16 18 mph 1024.3mb 59f 58f
4:00 4ft 8s 16 18 mph 1024.6mb 59f 58f
3:00 4.5ft 8s 13 16 mph 1024.6mb 58f 58f
2:00 4.5ft 8s 13 16 mph 1024.6mb 58f 58f
1:00 4.5ft 8s 11 13 mph 1024.6mb 58f 58f
12:00 4.5ft 7s 9 11 mph 1024.6mb 58f 58f
11:00 4.5ft 8s 9 13 mph 1024.4mb 58f 58f
10:00 4.5ft 7s 11 13 mph 1024.1mb 58f 57f
9:00 4.5ft 7s 9 11 mph 1024.1mb 58f 58f
8:00 4ft 8s 9 11 mph 1024mb 58f 58f
7:00 3.5ft 7s 9 11 mph 1023.8mb 58f 57f
6:00 4ft 7s 9 11 mph 1023.4mb 58f 57f
5:00 4ft 8s 9 9 mph 1023.2mb 58f 57f
4:00 4.5ft 8s 9 11 mph 1023.2mb 58f 57f
3:00 4ft 8s 9 11 mph 1022.9mb 58f 57f
2:00 4.5ft 8s 7 7 mph 1022.8mb 58f 57f
1:00 4.5ft 8s 7 9 mph 1022.8mb 58f 57f
12:00 5ft 8s 7 9 mph 1022.7mb 58f 57f
Sáb 07/22 11:00 5ft 8s 7 7 mph 1022.9mb 58f 57f
10:00 5ft 7s 7 7 mph 1023.1mb 58f 57f
9:00 5ft 7s 7 7 mph 1022.8mb 58f 58f
8:00 4.5ft 8s 2 4 mph 1022.6mb 58f 58f
7:00 4ft 7s 7 9 mph 1022.6mb 58f 57f
6:00 3.5ft 7s 7 9 mph 1022.5mb 58f 58f
5:00 3.5ft 8s 7 7 mph 1022.5mb 58f 58f
4:00 3.5ft 8s 9 11 mph 1022.3mb 58f 58f
3:00 3.5ft 8s 9 11 mph 1022.1mb 58f 58f
2:00 3.5ft 8s 7 9 mph 1021.8mb 58f 58f
1:00 4ft 8s 7 9 mph 1021.5mb 57f 57f
12:00 4ft 8s 11 13 mph 1020.7mb 57f 58f
11:00 4.5ft 7s 9 11 mph 1020.1mb 57f 58f
10:00 5ft 6s 11 13 mph 1019.5mb 57f 58f
9:00 4.5ft 7s 13 16 mph 1019.1mb 57f 57f
8:00 5ft 7s 11 13 mph 1018.6mb 57f 57f
7:00 5ft 8s 11 13 mph 1017.8mb 57f 56f
6:00 5.5ft 7s 11 13 mph 1017.1mb 57f 56f
5:00 6ft 7s 16 20 mph 1016.1mb 57f 56f
4:00 7ft 7s 11 16 mph 1015.3mb 57f 57f
3:00 7ft 6s 25 29 mph 1014.3mb 57f 56f
2:00 7ft 6s 27 34 mph 1013.7mb 57f 57f
1:00 7.5ft 6s 29 36 mph 1013.4mb 57f 57f
12:00 8ft 8s 34 40 mph 1013.1mb 57f 57f
Sex 07/21 11:00 8.5ft 6s 31 40 mph 1012.9mb 57f 58f
10:00 7.5ft 8s 31 43 mph 1013mb 58f 57f
9:00 8ft 8s 34 40 mph 1013.1mb 58f 57f
8:00 9ft 8s 34 40 mph 1013.5mb 58f 57f
7:00 9ft 8s 34 40 mph 1014mb 58f 57f
6:00 9ft 8s 31 36 mph 1014.4mb 58f 58f
5:00 9ft 8s 31 38 mph 1014.6mb 58f 58f
4:00 8ft 8s 29 36 mph 1015.2mb 58f 58f
3:00 8ft 8s 29 36 mph 1015.6mb 58f 58f
2:00 7ft 8s 27 34 mph 1015.9mb 58f 58f
1:00 7ft 5s 27 34 mph 1016mb 58f 57f
12:00 6.5ft 8s 27 34 mph 1016mb 58f 57f
11:00 6.5ft 7s 29 34 mph 1015.8mb 59f 57f
10:00 6ft 6s 27 34 mph 1016mb 58f 57f
9:00 6ft 6s 27 31 mph 1016mb 58f 58f
8:00 5.5ft 6s 25 31 mph 1016mb 58f 58f
7:00 4.5ft 6s 25 31 mph 1016.2mb 58f 58f
6:00 3.5ft 6s 22 27 mph 1016.4mb 58f 59f
5:00 3ft 5s 18 22 mph 1016.9mb 59f 58f
4:00 3ft 4s 18 22 mph 1017.1mb 59f 58f
3:00 3ft 4s 18 22 mph 1017.3mb 59f 59f
2:00 2.5ft 4s 20 25 mph 1017.5mb 59f 59f
1:00 2.5ft 4s 16 20 mph 1017.7mb 58f 59f
12:00 2.5ft 4s 18 22 mph 1017.8mb 58f 59f
Qui 07/20 11:00 2.5ft 3s 18 22 mph 1018mb 58f 59f
10:00 1.6ft 3s 16 20 mph 1018.3mb 59f 59f
9:00 1.3ft 14s 18 20 mph 1018.2mb 60f 59f